Time;durP1;ratioP1;P1;durP2;ratioP2;P2;SDS_P1;SDS_P2;PMS_P1;PMS_P2;Temp;Humidity;BMP_temperature;BMP_pressure;BME280_temperature;BME280_humidity;BME280_pressure;Samples;Min_cycle;Max_cycle;Signal;HPM_P1;HPM_P2
2021/11/22 00:00:15;;;;;;;39.08;24.42;;;;;;;;;;5106736;28;20030;-73
2021/11/22 00:02:42;;;;;;;39.65;27.05;;;;;;;;;;5107276;28;20075;-72
2021/11/22 00:05:08;;;;;;;38.10;25.70;;;;;;;;;;5108366;28;20508;-72
2021/11/22 00:07:34;;;;;;;39.53;24.38;;;;;;;;;;5109430;28;20406;-72
2021/11/22 00:10:03;;;;;;;37.03;23.58;;;;;;;;;;5110574;28;20112;-72
2021/11/22 00:12:30;;;;;;;36.67;23.45;;;;;;;;;;5107501;28;20047;-72
2021/11/22 00:14:56;;;;;;;39.38;23.67;;;;;;;;;;5107857;28;20012;-72
2021/11/22 00:17:22;;;;;;;35.80;23.25;;;;;;;;;;5108107;28;20036;-72
2021/11/22 00:19:48;;;;;;;37.33;24.27;;;;;;;;;;5108175;28;20058;-72
2021/11/22 00:22:14;;;;;;;37.42;23.65;;;;;;;;;;5114651;28;20036;-72
2021/11/22 00:24:40;;;;;;;36.58;23.27;;;;;;;;;;5110961;28;20077;-72
2021/11/22 00:27:06;;;;;;;35.88;22.85;;;;;;;;;;5111023;28;20027;-72
2021/11/22 00:29:32;;;;;;;44.42;24.65;;;;;;;;;;5111619;28;20027;-72
2021/11/22 00:32:01;;;;;;;40.20;23.75;;;;;;;;;;5111733;28;20040;-73
2021/11/22 00:34:28;;;;;;;38.78;26.17;;;;;;;;;;5113727;28;20107;-72
2021/11/22 00:36:54;;;;;;;39.67;25.58;;;;;;;;;;5112764;28;20054;-72
2021/11/22 00:39:20;;;;;;;35.53;23.98;;;;;;;;;;5111623;28;20089;-72
2021/11/22 00:41:46;;;;;;;35.75;24.00;;;;;;;;;;5109466;28;20467;-73
2021/11/22 00:44:12;;;;;;;38.33;24.10;;;;;;;;;;5111155;28;20063;-72
2021/11/22 00:46:38;;;;;;;40.40;25.77;;;;;;;;;;5112094;28;20016;-72
2021/11/22 00:49:04;;;;;;;39.83;25.50;;;;;;;;;;5114148;28;20591;-72
2021/11/22 00:51:31;;;;;;;37.80;25.38;;;;;;;;;;5111584;28;20032;-72
2021/11/22 00:53:57;;;;;;;40.28;26.55;;;;;;;;;;5110487;28;20028;-72
2021/11/22 00:56:23;;;;;;;40.47;25.08;;;;;;;;;;5111172;28;20088;-72
2021/11/22 00:58:49;;;;;;;39.85;26.45;;;;;;;;;;5111151;28;20471;-72
2021/11/22 01:01:16;;;;;;;40.55;26.27;;;;;;;;;;5114350;28;20070;-72
2021/11/22 01:03:42;;;;;;;40.47;26.80;;;;;;;;;;5111485;28;20364;-72
2021/11/22 01:06:08;;;;;;;42.95;27.45;;;;;;;;;;5110522;28;20518;-72
2021/11/22 01:08:34;;;;;;;49.28;28.30;;;;;;;;;;5110538;28;20153;-72
2021/11/22 01:11:00;;;;;;;41.05;28.17;;;;;;;;;;5111158;28;20379;-71
2021/11/22 01:13:26;;;;;;;44.28;27.90;;;;;;;;;;5113361;28;20031;-72
2021/11/22 01:15:52;;;;;;;41.05;27.67;;;;;;;;;;5111666;28;20020;-73
2021/11/22 01:18:18;;;;;;;40.83;27.33;;;;;;;;;;5110768;28;20038;-73
2021/11/22 01:20:44;;;;;;;46.58;27.77;;;;;;;;;;5110432;28;20395;-72
2021/11/22 01:23:11;;;;;;;44.42;28.10;;;;;;;;;;5109399;28;20031;-72
2021/11/22 01:25:38;;;;;;;44.67;28.60;;;;;;;;;;5110901;28;20027;-72
2021/11/22 01:28:05;;;;;;;42.47;26.50;;;;;;;;;;5113560;28;20262;-73
2021/11/22 01:30:31;;;;;;;45.00;27.02;;;;;;;;;;5112185;28;20019;-72
2021/11/22 01:32:57;;;;;;;38.40;25.33;;;;;;;;;;5109482;28;20437;-73
2021/11/22 01:35:23;;;;;;;42.85;26.25;;;;;;;;;;5110274;28;20027;-72
2021/11/22 01:37:50;;;;;;;37.42;25.10;;;;;;;;;;5110512;28;20024;-72
2021/11/22 01:40:21;;;;;;;42.22;25.75;;;;;;;;;;5113300;28;20511;-73
2021/11/22 01:42:49;;;;;;;38.00;24.70;;;;;;;;;;5112872;28;20114;-73
2021/11/22 01:45:16;;;;;;;40.10;26.50;;;;;;;;;;5108812;28;20027;-73
2021/11/22 01:47:43;;;;;;;36.85;25.10;;;;;;;;;;5111718;28;20023;-73
2021/11/22 01:50:09;;;;;;;39.45;26.45;;;;;;;;;;5109660;28;20030;-72
2021/11/22 01:52:38;;;;;;;38.28;25.65;;;;;;;;;;5111025;28;20055;-72
2021/11/22 01:55:04;;;;;;;36.78;24.00;;;;;;;;;;5113271;28;20041;-73
2021/11/22 01:57:32;;;;;;;35.00;24.35;;;;;;;;;;5109820;28;20031;-73
2021/11/22 01:59:58;;;;;;;37.22;24.88;;;;;;;;;;5104063;28;20042;-72
2021/11/22 02:02:24;;;;;;;38.22;24.38;;;;;;;;;;5109310;28;20031;-72
2021/11/22 02:04:50;;;;;;;39.58;26.45;;;;;;;;;;5109488;28;20098;-73
2021/11/22 02:07:16;;;;;;;44.05;27.10;;;;;;;;;;5112792;28;20509;-72
2021/11/22 02:09:42;;;;;;;43.88;28.02;;;;;;;;;;5110005;28;20020;-73
2021/11/22 02:12:08;;;;;;;45.75;29.17;;;;;;;;;;5109620;28;20031;-73
2021/11/22 02:14:34;;;;;;;51.33;31.08;;;;;;;;;;5101869;28;20045;-73
2021/11/22 02:17:01;;;;;;;52.33;30.95;;;;;;;;;;5110006;28;20060;-72
2021/11/22 02:19:27;;;;;;;52.67;30.55;;;;;;;;;;5111994;28;20051;-73
2021/11/22 02:21:53;;;;;;;42.20;27.05;;;;;;;;;;5110794;28;20129;-73
2021/11/22 02:24:19;;;;;;;41.53;25.35;;;;;;;;;;5109139;28;20117;-72
2021/11/22 02:26:45;;;;;;;41.03;25.65;;;;;;;;;;5109049;28;20499;-72
2021/11/22 02:29:11;;;;;;;34.97;23.52;;;;;;;;;;5109442;28;20023;-72
2021/11/22 02:31:37;;;;;;;35.78;24.30;;;;;;;;;;5110399;28;20566;-73
2021/11/22 02:34:07;;;;;;;38.33;24.35;;;;;;;;;;5111810;28;20020;-72
2021/11/22 02:36:33;;;;;;;40.50;23.77;;;;;;;;;;5108980;28;20076;-73
2021/11/22 02:38:59;;;;;;;39.33;24.55;;;;;;;;;;5108742;28;20110;-72
2021/11/22 02:41:25;;;;;;;39.33;24.75;;;;;;;;;;5109499;28;20044;-72
2021/11/22 02:43:51;;;;;;;39.35;24.63;;;;;;;;;;5108427;28;20027;-72
2021/11/22 02:46:17;;;;;;;39.60;25.65;;;;;;;;;;5111781;28;20028;-72
2021/11/22 02:48:43;;;;;;;41.53;25.83;;;;;;;;;;5110030;28;20024;-72
2021/11/22 02:51:10;;;;;;;32.53;22.95;;;;;;;;;;5108594;28;20546;-72
2021/11/22 02:53:37;;;;;;;33.53;23.00;;;;;;;;;;5108913;28;20054;-71
2021/11/22 02:56:06;;;;;;;29.77;20.55;;;;;;;;;;5109215;28;20070;-71
2021/11/22 02:58:33;;;;;;;33.13;22.05;;;;;;;;;;5110301;28;20015;-72
2021/11/22 03:00:59;;;;;;;34.15;23.20;;;;;;;;;;5109119;28;20428;-72
2021/11/22 03:03:26;;;;;;;35.42;23.95;;;;;;;;;;5108875;28;20039;-72
2021/11/22 03:06:00;;;;;;;36.90;24.25;;;;;;;;;;5108883;28;20094;-72
2021/11/22 03:08:26;;;;;;;35.85;23.92;;;;;;;;;;5108922;28;20475;-73
2021/11/22 03:10:52;;;;;;;33.90;23.13;;;;;;;;;;5108251;28;20073;-72
2021/11/22 03:13:18;;;;;;;34.70;22.63;;;;;;;;;;5110883;28;20031;-73
2021/11/22 03:15:44;;;;;;;37.53;23.08;;;;;;;;;;5110977;28;20046;-74
2021/11/22 03:18:10;;;;;;;39.72;24.23;;;;;;;;;;5108477;28;20031;-72
2021/11/22 03:20:36;;;;;;;38.33;23.20;;;;;;;;;;5107952;28;20027;-72
2021/11/22 03:23:02;;;;;;;33.17;20.25;;;;;;;;;;5108575;28;20570;-72
2021/11/22 03:25:31;;;;;;;35.58;21.30;;;;;;;;;;5110445;28;20106;-72
2021/11/22 03:27:57;;;;;;;31.52;20.05;;;;;;;;;;5109214;28;20024;-71
2021/11/22 03:30:23;;;;;;;29.88;18.90;;;;;;;;;;5108125;28;20112;-71
2021/11/22 03:32:49;;;;;;;29.20;19.33;;;;;;;;;;5107748;28;20111;-72
2021/11/22 03:35:15;;;;;;;32.47;20.20;;;;;;;;;;5108531;28;20023;-72
2021/11/22 03:37:41;;;;;;;32.45;20.55;;;;;;;;;;5092706;28;20502;-72
2021/11/22 03:40:08;;;;;;;30.17;19.50;;;;;;;;;;5111263;28;20023;-72
2021/11/22 03:42:51;;;;;;;27.48;18.55;;;;;;;;;;5108146;28;20028;-72
2021/11/22 03:45:17;;;;;;;30.92;18.20;;;;;;;;;;5108609;28;20515;-72
2021/11/22 03:47:43;;;;;;;29.15;18.15;;;;;;;;;;5108038;28;20066;-72
2021/11/22 03:50:09;;;;;;;30.20;19.15;;;;;;;;;;5108034;28;20390;-72
2021/11/22 03:52:35;;;;;;;29.77;19.17;;;;;;;;;;5109497;28;20039;-72
2021/11/22 03:55:01;;;;;;;29.08;18.73;;;;;;;;;;5110899;28;20024;-73
2021/11/22 03:57:28;;;;;;;30.58;19.38;;;;;;;;;;5112288;28;20102;-71
2021/11/22 03:59:56;;;;;;;28.17;18.65;;;;;;;;;;5112037;28;20485;-72
2021/11/22 04:02:22;;;;;;;25.20;17.90;;;;;;;;;;5110355;28;20031;-72
2021/11/22 04:04:48;;;;;;;25.80;18.35;;;;;;;;;;5111697;28;20172;-72
2021/11/22 04:07:14;;;;;;;28.85;17.52;;;;;;;;;;5115525;28;20024;-72
2021/11/22 04:09:40;;;;;;;29.20;17.67;;;;;;;;;;5112184;28;20023;-72
2021/11/22 04:12:06;;;;;;;24.85;16.90;;;;;;;;;;5111738;28;20119;-72
2021/11/22 04:14:32;;;;;;;27.83;18.17;;;;;;;;;;5111669;28;20591;-72
2021/11/22 04:16:58;;;;;;;29.67;18.73;;;;;;;;;;5110674;28;20119;-71
2021/11/22 04:19:24;;;;;;;32.10;19.30;;;;;;;;;;5114222;28;20090;-72
2021/11/22 04:21:50;;;;;;;27.13;18.23;;;;;;;;;;5111267;28;20142;-72
2021/11/22 04:24:16;;;;;;;30.75;19.15;;;;;;;;;;5112195;28;20035;-71
2021/11/22 04:26:42;;;;;;;32.65;19.45;;;;;;;;;;5111684;28;20027;-70
2021/11/22 04:29:08;;;;;;;43.97;19.48;;;;;;;;;;5109897;28;20106;-70
2021/11/22 04:31:34;;;;;;;28.08;18.83;;;;;;;;;;5112296;28;20065;-71
2021/11/22 04:34:01;;;;;;;27.15;18.60;;;;;;;;;;5115217;28;20437;-71
2021/11/22 04:36:27;;;;;;;28.38;18.08;;;;;;;;;;5112230;28;20020;-71
2021/11/22 04:38:53;;;;;;;27.75;18.75;;;;;;;;;;5112982;28;20035;-71
2021/11/22 04:41:21;;;;;;;30.75;19.80;;;;;;;;;;5112234;28;20367;-71
2021/11/22 04:43:47;;;;;;;30.83;20.52;;;;;;;;;;5111037;28;20033;-71
2021/11/22 04:46:13;;;;;;;31.60;20.08;;;;;;;;;;5114768;28;20039;-70
2021/11/22 04:48:39;;;;;;;32.47;19.73;;;;;;;;;;5113195;28;20023;-68
2021/11/22 04:51:05;;;;;;;31.08;18.80;;;;;;;;;;5110908;28;20367;-67
2021/11/22 04:53:31;;;;;;;32.38;18.73;;;;;;;;;;5111140;28;20038;-70
2021/11/22 04:55:57;;;;;;;30.02;19.40;;;;;;;;;;5110296;28;20024;-71
2021/11/22 04:58:23;;;;;;;35.47;19.27;;;;;;;;;;5113462;28;20039;-67
2021/11/22 05:00:49;;;;;;;30.45;19.95;;;;;;;;;;5104239;28;20510;-67
2021/11/22 05:03:15;;;;;;;34.55;21.98;;;;;;;;;;5107239;28;20032;-67
2021/11/22 05:05:41;;;;;;;32.70;20.88;;;;;;;;;;5110027;28;20450;-67
2021/11/22 05:08:08;;;;;;;31.85;20.42;;;;;;;;;;5109008;28;20432;-67
2021/11/22 05:10:42;;;;;;;30.88;19.00;;;;;;;;;;5112318;28;20031;-67
2021/11/22 05:13:09;;;;;;;29.05;18.77;;;;;;;;;;5114119;28;20024;-68
2021/11/22 05:15:36;;;;;;;29.73;19.10;;;;;;;;;;5110527;28;20030;-67
2021/11/22 05:18:02;;;;;;;26.65;18.17;;;;;;;;;;5110386;28;20072;-67
2021/11/22 05:20:29;;;;;;;31.63;19.92;;;;;;;;;;5110876;28;20038;-67
2021/11/22 05:22:55;;;;;;;29.00;18.98;;;;;;;;;;5110545;28;20082;-67
2021/11/22 05:25:21;;;;;;;29.42;18.45;;;;;;;;;;5112894;28;20478;-68
2021/11/22 05:27:47;;;;;;;27.20;18.55;;;;;;;;;;5111381;28;20059;-66
2021/11/22 05:30:13;;;;;;;31.17;19.10;;;;;;;;;;5110172;28;20450;-68
2021/11/22 05:32:40;;;;;;;30.50;18.95;;;;;;;;;;5110139;28;20088;-67
2021/11/22 05:35:06;;;;;;;29.30;19.02;;;;;;;;;;5110819;28;20027;-66
2021/11/22 05:37:34;;;;;;;28.48;18.00;;;;;;;;;;5111937;28;20479;-67
2021/11/22 05:40:00;;;;;;;28.90;19.30;;;;;;;;;;5112712;28;20092;-67
2021/11/22 05:42:26;;;;;;;27.60;18.48;;;;;;;;;;5109739;28;20036;-68
2021/11/22 05:44:52;;;;;;;29.73;19.70;;;;;;;;;;5110263;28;20030;-66
2021/11/22 05:47:18;;;;;;;28.02;18.83;;;;;;;;;;5110363;28;20036;-67
2021/11/22 05:49:45;;;;;;;25.52;18.20;;;;;;;;;;5110199;28;20016;-67
2021/11/22 05:52:12;;;;;;;28.90;18.73;;;;;;;;;;5113463;28;20032;-66
2021/11/22 05:54:46;;;;;;;26.33;18.40;;;;;;;;;;5109796;27;20019;-66
2021/11/22 05:57:12;;;;;;;23.77;18.05;;;;;;;;;;5110007;28;20086;-67
2021/11/22 05:59:38;;;;;;;30.52;19.63;;;;;;;;;;5109986;28;20515;-67
2021/11/22 06:02:04;;;;;;;24.42;17.15;;;;;;;;;;5109619;28;20110;-67
2021/11/22 06:04:30;;;;;;;24.17;16.85;;;;;;;;;;5111649;28;20425;-66
2021/11/22 06:06:56;;;;;;;23.98;17.38;;;;;;;;;;5111535;28;20031;-67
2021/11/22 06:09:22;;;;;;;30.25;18.33;;;;;;;;;;5108615;28;20078;-67
2021/11/22 06:11:48;;;;;;;25.38;17.17;;;;;;;;;;5110061;28;20031;-66
2021/11/22 06:14:14;;;;;;;27.77;19.00;;;;;;;;;;5108467;28;20024;-67
2021/11/22 06:16:40;;;;;;;28.92;18.45;;;;;;;;;;5110327;28;20378;-66
2021/11/22 06:19:06;;;;;;;27.42;18.50;;;;;;;;;;5112108;28;20050;-67
2021/11/22 06:21:33;;;;;;;26.80;17.27;;;;;;;;;;5109674;28;20063;-67
2021/11/22 06:24:00;;;;;;;24.83;17.08;;;;;;;;;;5109286;28;20501;-67
2021/11/22 06:26:26;;;;;;;28.60;17.45;;;;;;;;;;5107866;28;20046;-66
2021/11/22 06:28:53;;;;;;;30.58;17.70;;;;;;;;;;5109038;28;20024;-66
2021/11/22 06:31:20;;;;;;;31.33;19.02;;;;;;;;;;5111925;28;20599;-68
2021/11/22 06:33:46;;;;;;;26.40;17.50;;;;;;;;;;5111716;28;20049;-68
2021/11/22 06:36:12;;;;;;;31.02;19.25;;;;;;;;;;5109212;28;20019;-67
2021/11/22 06:38:38;;;;;;;27.92;19.70;;;;;;;;;;5109417;28;20034;-67
2021/11/22 06:41:04;;;;;;;28.02;18.20;;;;;;;;;;5108076;28;20034;-67
2021/11/22 06:43:30;;;;;;;29.73;19.48;;;;;;;;;;5110176;28;20035;-66
2021/11/22 06:45:56;;;;;;;31.00;19.90;;;;;;;;;;5111101;28;20134;-67
2021/11/22 06:48:22;;;;;;;27.63;19.00;;;;;;;;;;5108822;28;20474;-67
2021/11/22 06:50:48;;;;;;;27.25;18.88;;;;;;;;;;5109137;28;20035;-67
2021/11/22 06:53:14;;;;;;;26.88;17.52;;;;;;;;;;5109098;28;20020;-67
2021/11/22 06:55:40;;;;;;;29.05;18.83;;;;;;;;;;5109265;28;20031;-67
2021/11/22 06:58:06;;;;;;;29.33;19.20;;;;;;;;;;5111849;28;20106;-67
2021/11/22 07:00:32;;;;;;;30.45;16.77;;;;;;;;;;5108831;28;20102;-65
2021/11/22 07:02:59;;;;;;;28.08;17.50;;;;;;;;;;5108455;28;20043;-66
2021/11/22 07:05:26;;;;;;;26.63;18.10;;;;;;;;;;5108915;28;20099;-66
2021/11/22 07:07:52;;;;;;;28.90;18.05;;;;;;;;;;5108923;28;20024;-67
2021/11/22 07:10:21;;;;;;;28.40;17.60;;;;;;;;;;5111157;28;20028;-67
2021/11/22 07:12:47;;;;;;;25.10;16.92;;;;;;;;;;5109921;28;20023;-67
2021/11/22 07:15:18;;;;;;;26.20;17.25;;;;;;;;;;5108336;28;20031;-67
2021/11/22 07:17:44;;;;;;;28.70;17.15;;;;;;;;;;5108800;28;20031;-67
2021/11/22 07:20:11;;;;;;;25.60;16.83;;;;;;;;;;5108629;28;20071;-66
2021/11/22 07:22:37;;;;;;;28.27;15.82;;;;;;;;;;5109393;28;20042;-66
2021/11/22 07:25:04;;;;;;;26.20;15.43;;;;;;;;;;5110861;28;20449;-66
2021/11/22 07:27:30;;;;;;;24.63;14.68;;;;;;;;;;5108451;28;20038;-66
2021/11/22 07:29:57;;;;;;;29.08;16.88;;;;;;;;;;5107938;28;20051;-66
2021/11/22 07:32:26;;;;;;;23.70;15.70;;;;;;;;;;5108201;28;20042;-66
2021/11/22 07:34:52;;;;;;;25.58;16.25;;;;;;;;;;5109007;28;20020;-66
2021/11/22 07:37:18;;;;;;;24.17;16.08;;;;;;;;;;5111637;28;20045;-68
2021/11/22 07:39:44;;;;;;;25.02;16.30;;;;;;;;;;5109074;28;20044;-66
2021/11/22 07:42:10;;;;;;;26.27;16.98;;;;;;;;;;5108233;28;20068;-66
2021/11/22 07:44:36;;;;;;;25.35;16.23;;;;;;;;;;5108125;28;20039;-67
2021/11/22 07:47:04;;;;;;;26.23;16.88;;;;;;;;;;5108192;28;20031;-66
2021/11/22 07:49:30;;;;;;;25.85;17.00;;;;;;;;;;5110182;28;20031;-66
2021/11/22 07:51:56;;;;;;;24.27;15.68;;;;;;;;;;5110031;28;20079;-66
2021/11/22 07:54:23;;;;;;;29.63;19.92;;;;;;;;;;5107736;28;20035;-66
2021/11/22 07:56:49;;;;;;;30.33;19.25;;;;;;;;;;5108099;28;20103;-66
2021/11/22 07:59:15;;;;;;;30.48;19.85;;;;;;;;;;5108235;28;20107;-67
2021/11/22 08:01:42;;;;;;;28.50;19.00;;;;;;;;;;5107949;28;20077;-68
2021/11/22 08:04:13;;;;;;;28.88;18.20;;;;;;;;;;5111102;28;20023;-68
2021/11/22 08:06:45;;;;;;;27.77;18.10;;;;;;;;;;5108490;28;20028;-66
2021/11/22 08:09:23;;;;;;;27.65;18.33;;;;;;;;;;5108126;28;20096;-66
2021/11/22 08:12:03;;;;;;;31.05;18.77;;;;;;;;;;5108344;28;20023;-66
2021/11/22 08:14:29;;;;;;;26.33;18.45;;;;;;;;;;5107351;28;20103;-67
2021/11/22 08:16:55;;;;;;;28.88;18.42;;;;;;;;;;5109361;28;20016;-67
2021/11/22 08:19:21;;;;;;;31.02;18.33;;;;;;;;;;5110618;28;20104;-67
2021/11/22 08:21:47;;;;;;;24.55;16.88;;;;;;;;;;5109017;28;20336;-67
2021/11/22 08:24:13;;;;;;;31.65;19.50;;;;;;;;;;5107377;28;20020;-67
2021/11/22 08:26:39;;;;;;;28.73;17.48;;;;;;;;;;5107367;28;20028;-67
2021/11/22 08:29:05;;;;;;;23.77;16.02;;;;;;;;;;5104387;28;20012;-67
2021/11/22 08:31:31;;;;;;;28.50;17.17;;;;;;;;;;5109868;28;20554;-66
2021/11/22 08:33:57;;;;;;;24.10;17.48;;;;;;;;;;5109604;28;20036;-66
2021/11/22 08:36:25;;;;;;;25.02;17.00;;;;;;;;;;5107279;28;20063;-67
2021/11/22 08:38:51;;;;;;;25.88;17.27;;;;;;;;;;5107616;28;20016;-67
2021/11/22 08:41:17;;;;;;;28.48;20.80;;;;;;;;;;5107353;28;20035;-66
2021/11/22 08:43:44;;;;;;;28.85;18.95;;;;;;;;;;5111703;28;20047;-66
2021/11/22 08:46:10;;;;;;;36.30;21.83;;;;;;;;;;5110118;28;20065;-66
2021/11/22 08:48:36;;;;;;;30.48;21.73;;;;;;;;;;5111211;28;20483;-65
2021/11/22 08:51:04;;;;;;;37.90;24.13;;;;;;;;;;5110907;28;20425;-65
2021/11/22 08:53:30;;;;;;;28.60;18.92;;;;;;;;;;5111127;28;20069;-65
2021/11/22 08:55:56;;;;;;;23.80;16.27;;;;;;;;;;5110776;28;20100;-66
2021/11/22 08:58:22;;;;;;;23.75;16.52;;;;;;;;;;5113594;28;20478;-66
2021/11/22 09:00:48;;;;;;;25.95;17.40;;;;;;;;;;5111605;28;20032;-66
2021/11/22 09:03:14;;;;;;;29.05;17.05;;;;;;;;;;5110829;28;20058;-66
2021/11/22 09:05:40;;;;;;;23.67;15.63;;;;;;;;;;5110489;28;20148;-66
2021/11/22 09:08:06;;;;;;;23.63;15.50;;;;;;;;;;5110667;28;20023;-64
2021/11/22 09:10:32;;;;;;;23.77;15.27;;;;;;;;;;5112884;28;20043;-64
2021/11/22 09:12:58;;;;;;;22.33;15.20;;;;;;;;;;5112245;28;20499;-64
2021/11/22 09:15:24;;;;;;;24.52;14.85;;;;;;;;;;5110684;28;20024;-64
2021/11/22 09:17:51;;;;;;;21.23;14.65;;;;;;;;;;5110707;28;20022;-64
2021/11/22 09:20:17;;;;;;;23.10;14.68;;;;;;;;;;5110731;28;20028;-65
2021/11/22 09:22:43;;;;;;;22.90;15.98;;;;;;;;;;5110750;28;20074;-64
2021/11/22 09:25:10;;;;;;;24.00;14.65;;;;;;;;;;5113602;28;20429;-64
2021/11/22 09:27:36;;;;;;;24.73;14.95;;;;;;;;;;5110558;28;20356;-64
2021/11/22 09:30:02;;;;;;;23.65;15.35;;;;;;;;;;5110713;28;20023;-64
2021/11/22 09:32:28;;;;;;;22.20;15.27;;;;;;;;;;5110325;28;20048;-64
2021/11/22 09:34:56;;;;;;;23.63;15.65;;;;;;;;;;5109983;28;20441;-64
2021/11/22 09:37:22;;;;;;;24.10;15.60;;;;;;;;;;5111927;28;20051;-64
2021/11/22 09:39:48;;;;;;;23.73;15.77;;;;;;;;;;5111676;28;20187;-64
2021/11/22 09:42:14;;;;;;;27.20;17.05;;;;;;;;;;5110317;28;20035;-64
2021/11/22 09:44:40;;;;;;;27.58;16.35;;;;;;;;;;5110537;28;20030;-64
2021/11/22 09:47:06;;;;;;;27.88;17.05;;;;;;;;;;5110069;28;20023;-64
2021/11/22 09:49:32;;;;;;;28.17;16.55;;;;;;;;;;5111309;28;20103;-64
2021/11/22 09:51:59;;;;;;;26.52;16.63;;;;;;;;;;5111894;28;20089;-64
2021/11/22 09:54:24;;;;;;;28.40;16.98;;;;;;;;;;5110285;28;20028;-64
2021/11/22 09:56:52;;;;;;;23.17;15.68;;;;;;;;;;5109740;28;20050;-65
2021/11/22 09:59:19;;;;;;;26.73;16.23;;;;;;;;;;5109408;28;20119;-64
2021/11/22 10:01:45;;;;;;;22.52;15.60;;;;;;;;;;5109954;28;20292;-64
2021/11/22 10:04:13;;;;;;;22.38;14.73;;;;;;;;;;5113320;28;20035;-64
2021/11/22 10:07:05;;;;;;;22.42;14.77;;;;;;;;;;5109748;28;20038;-64
2021/11/22 10:09:34;;;;;;;23.70;15.35;;;;;;;;;;5106835;28;20479;-64
2021/11/22 10:12:03;;;;;;;22.13;13.85;;;;;;;;;;5107439;28;20023;-64
2021/11/22 10:14:37;;;;;;;25.60;13.82;;;;;;;;;;5110025;28;20031;-64
2021/11/22 10:17:17;;;;;;;24.90;13.65;;;;;;;;;;5107799;28;20024;-64
2021/11/22 10:19:43;;;;;;;22.77;14.35;;;;;;;;;;5098479;28;20402;-64
2021/11/22 10:22:19;;;;;;;22.52;14.40;;;;;;;;;;5112597;28;20032;-64
2021/11/22 10:24:46;;;;;;;23.08;14.88;;;;;;;;;;5111415;28;20027;-64
2021/11/22 10:27:12;;;;;;;20.75;14.18;;;;;;;;;;5109023;28;20024;-64
2021/11/22 10:29:38;;;;;;;23.05;14.23;;;;;;;;;;5109572;28;20035;-64
2021/11/22 10:32:05;;;;;;;19.75;13.10;;;;;;;;;;5109016;28;20040;-64
2021/11/22 10:34:37;;;;;;;21.35;14.02;;;;;;;;;;5111277;28;20028;-64
2021/11/22 10:37:05;;;;;;;22.35;14.23;;;;;;;;;;5111693;28;20027;-64
2021/11/22 10:39:31;;;;;;;22.55;13.73;;;;;;;;;;5109028;28;20019;-64
2021/11/22 10:41:58;;;;;;;20.88;13.43;;;;;;;;;;5108684;28;20067;-65
2021/11/22 10:44:28;;;;;;;21.90;12.80;;;;;;;;;;5109161;28;20098;-66
2021/11/22 10:46:57;;;;;;;21.58;13.20;;;;;;;;;;5109327;28;20538;-65
2021/11/22 10:52:10;;;;;;;16.77;11.40;;;;;;;;;;5112118;28;20042;-65
2021/11/22 10:54:51;;;;;;;18.40;12.43;;;;;;;;;;5109102;28;20052;-65
2021/11/22 10:57:17;;;;;;;18.55;12.73;;;;;;;;;;5109198;28;20031;-65
2021/11/22 10:59:43;;;;;;;19.23;13.30;;;;;;;;;;5108532;28;20106;-65
2021/11/22 11:02:09;;;;;;;19.50;13.27;;;;;;;;;;5109002;28;20114;-65
2021/11/22 11:04:42;;;;;;;21.00;13.73;;;;;;;;;;5108970;28;20016;-66
2021/11/22 11:07:08;;;;;;;20.83;14.10;;;;;;;;;;5112454;28;20072;-66
2021/11/22 11:09:39;;;;;;;19.52;13.95;;;;;;;;;;5110891;28;20031;-66
2021/11/22 11:12:05;;;;;;;21.77;13.25;;;;;;;;;;5108855;28;20593;-66
2021/11/22 11:14:32;;;;;;;18.08;12.90;;;;;;;;;;5108559;28;20035;-65
2021/11/22 11:17:13;;;;;;;21.30;13.20;;;;;;;;;;5108161;28;20468;-65
2021/11/22 11:19:39;;;;;;;22.10;13.80;;;;;;;;;;5109181;28;20023;-66
2021/11/22 11:22:05;;;;;;;18.48;13.27;;;;;;;;;;5111446;28;20071;-66
2021/11/22 11:24:32;;;;;;;16.38;11.45;;;;;;;;;;5108637;28;20089;-65
2021/11/22 11:26:58;;;;;;;20.98;12.63;;;;;;;;;;5108041;28;20110;-66
2021/11/22 11:29:24;;;;;;;17.00;11.75;;;;;;;;;;5108468;28;20020;-65
2021/11/22 11:31:50;;;;;;;19.35;12.80;;;;;;;;;;5109408;28;20036;-65
2021/11/22 11:34:16;;;;;;;20.25;13.60;;;;;;;;;;5111552;28;20043;-66
2021/11/22 11:36:42;;;;;;;21.48;13.35;;;;;;;;;;5108812;28;20356;-65
2021/11/22 11:39:20;;;;;;;19.42;13.02;;;;;;;;;;5107954;28;20032;-65
2021/11/22 11:41:46;;;;;;;;;;;;;;;;;;5101534;28;20039;-62
2021/11/22 11:44:28;;;;;;;15.32;10.15;;;;;;;;;;5107886;28;19912;-65
2021/11/22 11:47:14;;;;;;;15.48;10.30;;;;;;;;;;5093603;28;20024;-65
2021/11/22 11:49:40;;;;;;;16.27;10.50;;;;;;;;;;5081447;28;20479;-66
2021/11/22 11:52:23;;;;;;;14.25;10.07;;;;;;;;;;5110863;28;20034;-64
2021/11/22 11:54:49;;;;;;;16.50;11.20;;;;;;;;;;5111022;28;20112;-64
2021/11/22 11:57:23;;;;;;;14.60;9.88;;;;;;;;;;5107553;28;20107;-64
2021/11/22 11:59:49;;;;;;;16.27;10.82;;;;;;;;;;5106827;28;20073;-64
2021/11/22 12:02:25;;;;;;;16.55;10.82;;;;;;;;;;5107934;28;20089;-64
2021/11/22 12:04:57;;;;;;;12.95;9.27;;;;;;;;;;5093086;28;20062;-64
2021/11/22 12:07:25;;;;;;;14.27;9.43;;;;;;;;;;5110778;28;20020;-64
2021/11/22 12:10:01;;;;;;;13.80;9.80;;;;;;;;;;5109241;28;20046;-64
2021/11/22 12:12:34;;;;;;;13.27;8.73;;;;;;;;;;5109051;28;20046;-65
2021/11/22 12:15:01;;;;;;;12.77;7.78;;;;;;;;;;5108409;28;20118;-64
2021/11/22 12:17:36;;;;;;;10.27;7.20;;;;;;;;;;5110407;28;20023;-65
2021/11/22 12:20:26;;;;;;;11.18;6.88;;;;;;;;;;5112245;28;20024;-65
2021/11/22 12:22:55;;;;;;;10.77;7.32;;;;;;;;;;5090314;28;20048;-66
2021/11/22 12:25:42;;;;;;;11.35;8.00;;;;;;;;;;5114473;28;20020;-66
2021/11/22 12:28:14;;;;;;;12.90;7.65;;;;;;;;;;5114903;28;20138;-66
2021/11/22 12:30:42;;;;;;;11.35;7.18;;;;;;;;;;5113037;28;20043;-66
2021/11/22 12:33:24;;;;;;;13.75;7.75;;;;;;;;;;5111344;28;20421;-66
2021/11/22 12:35:51;;;;;;;11.55;7.65;;;;;;;;;;5111437;28;20034;-65
2021/11/22 12:38:18;;;;;;;14.70;8.57;;;;;;;;;;5111508;28;20023;-65
2021/11/22 12:40:45;;;;;;;11.32;8.05;;;;;;;;;;5111557;28;20028;-65
2021/11/22 12:43:11;;;;;;;12.18;8.20;;;;;;;;;;5110871;28;20031;-66
2021/11/22 12:45:56;;;;;;;12.50;8.23;;;;;;;;;;5111280;28;20115;-65
2021/11/22 12:48:26;;;;;;;13.65;9.02;;;;;;;;;;5111329;28;20107;-65
2021/11/22 12:50:57;;;;;;;10.95;7.80;;;;;;;;;;5111183;28;20032;-66
2021/11/22 12:53:23;;;;;;;12.10;7.97;;;;;;;;;;5111036;28;20028;-65
2021/11/22 12:55:50;;;;;;;12.32;7.22;;;;;;;;;;5111486;28;20032;-66
2021/11/22 12:58:23;;;;;;;10.30;6.60;;;;;;;;;;5114161;28;20102;-65
2021/11/22 13:00:51;;;;;;;11.90;7.93;;;;;;;;;;5111760;28;20089;-70
2021/11/22 13:03:19;;;;;;;12.07;8.45;;;;;;;;;;5112569;28;20042;-70
2021/11/22 13:05:57;;;;;;;12.63;8.30;;;;;;;;;;5111349;28;20020;-69
2021/11/22 13:08:32;;;;;;;14.38;7.72;;;;;;;;;;5111268;28;20031;-70
2021/11/22 13:11:01;;;;;;;11.98;6.22;;;;;;;;;;5111052;28;20051;-71
2021/11/22 13:13:30;;;;;;;8.43;5.72;;;;;;;;;;5112733;28;20030;-68
2021/11/22 13:15:58;;;;;;;10.70;5.75;;;;;;;;;;5112627;28;20019;-70
2021/11/22 13:18:24;;;;;;;;;;;;;;;;;;5111198;28;20110;-68
2021/11/22 13:20:51;;;;;;;11.25;6.38;;;;;;;;;;5110687;28;20014;-70
2021/11/22 13:23:24;;;;;;;10.30;6.93;;;;;;;;;;5110498;28;20400;-70
2021/11/22 13:25:51;;;;;;;10.80;6.82;;;;;;;;;;5095790;28;20020;-70
2021/11/22 13:28:18;;;;;;;11.95;7.13;;;;;;;;;;5106669;28;20369;-70
2021/11/22 13:30:45;;;;;;;13.45;7.32;;;;;;;;;;5111214;28;20114;-70
2021/11/22 13:33:11;;;;;;;11.70;7.20;;;;;;;;;;5110541;28;20479;-69
2021/11/22 13:35:37;;;;;;;12.73;7.40;;;;;;;;;;5110742;28;20356;-70
2021/11/22 13:38:15;;;;;;;12.55;7.60;;;;;;;;;;5110040;28;20020;-70
2021/11/22 13:40:46;;;;;;;13.98;7.63;;;;;;;;;;5110528;28;20035;-69
2021/11/22 13:43:15;;;;;;;10.45;7.22;;;;;;;;;;5109457;28;20481;-69
2021/11/22 13:45:42;;;;;;;11.57;7.75;;;;;;;;;;5111721;28;20023;-69
2021/11/22 13:48:08;;;;;;;13.10;7.90;;;;;;;;;;5110582;28;20098;-69
2021/11/22 13:50:41;;;;;;;12.23;8.02;;;;;;;;;;5110242;28;20462;-69
2021/11/22 13:53:07;;;;;;;12.18;7.90;;;;;;;;;;5108882;28;20035;-69
2021/11/22 13:55:33;;;;;;;11.35;8.07;;;;;;;;;;5097291;28;20104;-69
2021/11/22 13:58:13;;;;;;;13.18;8.07;;;;;;;;;;5111617;28;20497;-70
2021/11/22 14:00:51;;;;;;;12.18;8.10;;;;;;;;;;5110213;28;20072;-69
2021/11/22 14:03:18;;;;;;;12.07;7.53;;;;;;;;;;5110054;28;20035;-69
2021/11/22 14:05:45;;;;;;;11.82;8.23;;;;;;;;;;5110133;28;20099;-69
2021/11/22 14:08:11;;;;;;;13.55;7.18;;;;;;;;;;5109469;28;20088;-69
2021/11/22 14:10:40;;;;;;;12.18;7.20;;;;;;;;;;5111189;27;20028;-69
2021/11/22 14:13:07;;;;;;;10.88;7.35;;;;;;;;;;5112551;28;20703;-69
2021/11/22 14:15:37;;;;;;;10.45;7.20;;;;;;;;;;5109559;28;20333;-69
2021/11/22 14:18:04;;;;;;;11.18;7.63;;;;;;;;;;5109533;28;20023;-73
2021/11/22 14:20:30;;;;;;;11.93;8.27;;;;;;;;;;5110718;28;20459;-69
2021/11/22 14:23:07;;;;;;;14.77;8.05;;;;;;;;;;5109535;28;20047;-69
2021/11/22 14:25:34;;;;;;;11.90;7.97;;;;;;;;;;5111544;28;20486;-69